This is the latest recevied weather packets stored in our database for station/object OE6PWE-13. If no packets are shown the sender has not sent any weather packets the latest 10 day(s).
| Time | Temp. | Humidity | Pressure | Rain* | Wind** | Luminosity | Snow |
|---|---|---|---|---|---|---|---|
| 1788473712 | 18.33° C | 90% | 1020 hPa | 0 mm | - | - | - |
| 1788472811 | 18.33° C | 91% | 1020 hPa | 0 mm | - | - | - |
| 1788471912 | 18.89° C | 92% | 1020 hPa | 0 mm | - | - | - |
| 1788471012 | 18.89° C | 90% | 1020 hPa | 0 mm | - | - | - |
| 1788470112 | 19.44° C | 89% | 1020 hPa | 0 mm | - | - | - |
| 1788469212 | 18.89° C | 89% | 1020 hPa | 0 mm | - | - | - |
| 1788468312 | 18.89° C | 89% | 1019 hPa | 0 mm | - | - | - |
| 1788467412 | 18.89° C | 89% | 1019 hPa | 0 mm | - | - | - |
| 1788465612 | 19.44° C | 87% | 1019 hPa | 0 mm | - | - | - |
| 1788448512 | 30° C | 44% | 1017 hPa | 0 mm | - | - | - |
| 1788446712 | 29.44° C | 45% | 1017 hPa | 0 mm | - | - | - |
| 1788445812 | 29.44° C | 45% | 1017 hPa | 0 mm | - | - | - |
| 1788442211 | 29.44° C | 45% | 1017 hPa | 0 mm | - | - | - |
| 1788440412 | 28.33° C | 49% | 1018 hPa | 0 mm | - | - | - |
| 1788439512 | 28.33° C | 51% | 1018 hPa | 0 mm | - | - | - |
| 1788434112 | 28.33° C | 50% | 1018 hPa | 0 mm | - | - | - |
| 1788433212 | 28.33° C | 49% | 1019 hPa | 0 mm | - | - | - |
| 1788432312 | 27.78° C | 56% | 1019 hPa | 0 mm | - | - | - |
| 1788431412 | 26.67° C | 58% | 1019 hPa | 0 mm | - | - | - |
| 1788430512 | 27.22° C | 62% | 1019 hPa | 0 mm | - | - | - |
| 1788428712 | 25.56° C | 70% | 1020 hPa | 0 mm | - | - | - |
| 1788427812 | 25° C | 72% | 1020 hPa | 0 mm | - | - | - |
| 1788426912 | 22.22° C | 75% | 1021 hPa | 0 mm | - | - | - |
| 1788426012 | 19.44° C | 98% | 1021 hPa | 0 mm | - | - | - |
| 1788425112 | 18.33° C | 99% | 1021 hPa | 0 mm | - | - | - |
* Rain latest hour (hover to see other rain measurements)
** Current wind speed in m/s (hover to see current wind gust speed)